createdAt,value
2017-12-31T00:00:48.731Z,94.07
2017-12-31T00:03:16.529Z,94.33
2017-12-31T00:05:44.258Z,94.29
2017-12-31T00:08:12.031Z,94.10
2017-12-31T00:10:39.972Z,94.33
2017-12-31T00:13:07.908Z,94.60
2017-12-31T00:15:35.663Z,94.49
2017-12-31T00:18:04.254Z,94.36
2017-12-31T00:20:32.324Z,94.11
2017-12-31T00:23:00.185Z,93.73
2017-12-31T00:25:27.933Z,93.52
2017-12-31T00:27:55.733Z,93.40
2017-12-31T00:30:23.715Z,93.90
2017-12-31T00:32:51.659Z,93.70
2017-12-31T00:35:19.368Z,93.70
2017-12-31T00:37:47.204Z,94.45
2017-12-31T00:40:14.899Z,94.13
2017-12-31T00:42:42.704Z,93.84
2017-12-31T00:45:10.893Z,93.59
2017-12-31T00:47:38.632Z,94.34
2017-12-31T00:50:06.629Z,93.98
2017-12-31T00:52:34.560Z,93.24
2017-12-31T00:55:02.469Z,93.32
2017-12-31T00:57:30.178Z,93.18
2017-12-31T00:59:57.893Z,93.53
2017-12-31T01:02:25.647Z,94.41
2017-12-31T01:04:54.619Z,94.41
2017-12-31T01:07:22.621Z,94.15
2017-12-31T01:09:51.237Z,94.48
2017-12-31T01:12:19.083Z,94.48
2017-12-31T01:14:46.764Z,94.22
2017-12-31T01:17:14.599Z,94.25
2017-12-31T01:19:42.347Z,94.21
2017-12-31T01:22:10.112Z,93.99
2017-12-31T01:24:38.091Z,94.59
2017-12-31T01:27:05.859Z,94.23
2017-12-31T01:29:33.731Z,94.53
2017-12-31T01:32:01.650Z,94.53
2017-12-31T01:34:29.671Z,94.66
2017-12-31T01:36:57.414Z,95.16
2017-12-31T01:39:25.129Z,95.11
2017-12-31T01:41:52.794Z,94.98
2017-12-31T01:44:20.576Z,94.46
2017-12-31T01:46:48.270Z,93.92
2017-12-31T01:49:16.261Z,94.18
2017-12-31T01:51:44.034Z,94.04
2017-12-31T01:54:12.113Z,94.41
2017-12-31T01:56:39.779Z,94.48
2017-12-31T01:59:07.496Z,94.49
2017-12-31T02:01:36.107Z,95.15
2017-12-31T02:04:03.836Z,95.24
2017-12-31T02:06:31.589Z,95.07
2017-12-31T02:08:59.281Z,95.06
2017-12-31T02:11:27.023Z,94.62
2017-12-31T02:13:54.750Z,94.67
2017-12-31T02:16:22.469Z,94.86
2017-12-31T02:18:50.236Z,95.03
2017-12-31T02:21:17.989Z,94.86
2017-12-31T02:23:46.001Z,95.07
2017-12-31T02:26:13.753Z,94.85
2017-12-31T02:28:41.485Z,94.60
2017-12-31T02:31:09.381Z,94.56
2017-12-31T02:33:37.250Z,94.40
2017-12-31T02:36:05.472Z,94.51
2017-12-31T02:38:33.243Z,94.01
2017-12-31T02:41:01.017Z,94.75
2017-12-31T02:43:28.703Z,94.49
2017-12-31T02:45:56.419Z,94.05
2017-12-31T02:48:24.432Z,94.36
2017-12-31T02:50:52.226Z,94.62
2017-12-31T02:53:20.294Z,94.77
2017-12-31T02:55:47.970Z,94.53
2017-12-31T02:58:15.655Z,94.62
2017-12-31T03:00:43.662Z,94.82
2017-12-31T03:03:11.519Z,95.34
2017-12-31T03:05:39.295Z,95.43
2017-12-31T03:08:07.045Z,95.31
2017-12-31T03:10:34.955Z,94.84
2017-12-31T03:13:02.700Z,94.95
2017-12-31T03:15:30.378Z,94.70
2017-12-31T03:17:58.111Z,94.90
2017-12-31T03:20:26.220Z,94.87
2017-12-31T03:22:53.996Z,94.73
2017-12-31T03:25:21.751Z,94.60
2017-12-31T03:27:49.466Z,94.78
2017-12-31T03:30:17.146Z,94.93
2017-12-31T03:32:44.921Z,94.78
2017-12-31T03:35:13.092Z,94.75
2017-12-31T03:37:41.072Z,94.92
2017-12-31T03:40:08.953Z,94.83
2017-12-31T03:42:36.716Z,94.39
2017-12-31T03:45:04.398Z,94.46
2017-12-31T03:47:32.260Z,94.47
2017-12-31T03:50:00.212Z,94.75
2017-12-31T03:52:28.286Z,94.71
2017-12-31T03:54:56.462Z,94.90
2017-12-31T03:57:24.142Z,94.57
2017-12-31T03:59:51.896Z,94.87
2017-12-31T04:02:19.678Z,94.86
2017-12-31T04:04:48.236Z,94.84
2017-12-31T04:07:16.987Z,94.80
2017-12-31T04:09:44.700Z,94.64
2017-12-31T04:12:12.551Z,94.58
2017-12-31T04:14:40.228Z,94.85
2017-12-31T04:17:07.977Z,94.87
2017-12-31T04:19:35.816Z,94.08
2017-12-31T04:22:03.744Z,93.90
2017-12-31T04:24:31.517Z,94.51
2017-12-31T04:26:59.327Z,94.18
2017-12-31T04:29:27.434Z,94.36
2017-12-31T04:31:55.389Z,94.61
2017-12-31T04:34:23.458Z,94.71
2017-12-31T04:36:51.203Z,94.71
2017-12-31T04:39:19.080Z,94.93
2017-12-31T04:41:46.958Z,94.79
2017-12-31T04:44:15.032Z,94.97
2017-12-31T04:46:42.744Z,95.21
2017-12-31T04:49:10.584Z,95.32
2017-12-31T04:51:38.246Z,95.42
2017-12-31T04:54:05.962Z,95.07
2017-12-31T04:56:33.683Z,94.22
2017-12-31T04:59:01.511Z,94.78
2017-12-31T05:01:29.488Z,95.01
2017-12-31T05:03:57.376Z,95.30
2017-12-31T05:06:26.201Z,95.33
2017-12-31T05:08:54.238Z,95.36
2017-12-31T05:11:21.986Z,95.21
2017-12-31T05:13:50.359Z,94.82
2017-12-31T05:16:18.194Z,94.60
2017-12-31T05:18:46.105Z,94.72
2017-12-31T05:21:13.839Z,95.02
2017-12-31T05:23:41.611Z,94.89
2017-12-31T05:26:09.662Z,94.84
2017-12-31T05:28:37.385Z,95.47
2017-12-31T05:31:05.396Z,95.26
2017-12-31T05:33:33.300Z,95.08
2017-12-31T05:36:01.063Z,95.42
2017-12-31T05:38:28.860Z,95.70
2017-12-31T05:40:56.980Z,95.42
2017-12-31T05:43:24.898Z,95.28
2017-12-31T05:45:52.717Z,95.21
2017-12-31T05:48:20.458Z,95.15
2017-12-31T05:50:48.457Z,95.18
2017-12-31T05:53:16.408Z,95.43
2017-12-31T05:55:44.116Z,95.76
2017-12-31T05:58:11.848Z,95.53
2017-12-31T06:00:39.721Z,95.38
2017-12-31T06:03:07.630Z,95.39
2017-12-31T06:05:35.340Z,95.90
2017-12-31T06:08:03.023Z,95.70
2017-12-31T06:10:30.878Z,95.82
2017-12-31T06:12:58.573Z,95.99
2017-12-31T06:15:26.278Z,95.78
2017-12-31T06:17:54.041Z,94.92
2017-12-31T06:20:21.742Z,95.01
2017-12-31T06:22:49.564Z,95.16
2017-12-31T06:25:17.266Z,95.98
2017-12-31T06:27:44.951Z,96.56
2017-12-31T06:30:12.726Z,96.34
2017-12-31T06:32:40.427Z,96.41
2017-12-31T06:35:08.252Z,96.27
2017-12-31T06:37:35.960Z,96.14
2017-12-31T06:40:03.759Z,96.05
2017-12-31T06:42:31.548Z,96.26
2017-12-31T06:44:59.329Z,96.21
2017-12-31T06:47:27.015Z,96.07
2017-12-31T06:49:54.752Z,95.92
2017-12-31T06:52:23.550Z,96.15
2017-12-31T06:54:51.331Z,95.99
2017-12-31T06:57:19.112Z,95.84
2017-12-31T06:59:52.630Z,95.92
2017-12-31T07:02:20.371Z,95.88
2017-12-31T07:04:48.212Z,95.78
2017-12-31T07:07:15.952Z,95.61
2017-12-31T07:09:43.827Z,95.33
2017-12-31T07:12:11.642Z,95.24
2017-12-31T07:14:39.734Z,95.07
2017-12-31T07:17:07.483Z,95.30
2017-12-31T07:19:35.298Z,95.33
2017-12-31T07:22:03.026Z,95.14
2017-12-31T07:24:30.829Z,94.95
2017-12-31T07:26:58.532Z,94.74
2017-12-31T07:29:26.585Z,94.74
2017-12-31T07:31:54.599Z,94.58
2017-12-31T07:34:24.195Z,94.68
2017-12-31T07:36:51.998Z,94.53
2017-12-31T07:39:19.720Z,94.60
2017-12-31T07:41:47.502Z,94.48
2017-12-31T07:44:15.273Z,94.52
2017-12-31T07:46:43.319Z,94.71
2017-12-31T07:49:11.151Z,94.63
2017-12-31T07:51:38.853Z,94.50
2017-12-31T07:54:06.718Z,94.12
2017-12-31T07:56:34.430Z,93.99
2017-12-31T07:59:02.184Z,94.55
2017-12-31T08:01:30.016Z,94.84
2017-12-31T08:03:57.795Z,94.58
2017-12-31T08:06:25.578Z,94.42
2017-12-31T08:08:53.449Z,94.00
2017-12-31T08:11:21.385Z,93.75
2017-12-31T08:13:49.180Z,93.92
2017-12-31T08:16:17.094Z,93.67
2017-12-31T08:18:44.824Z,93.77
2017-12-31T08:21:12.592Z,93.30
2017-12-31T08:23:40.296Z,93.46
2017-12-31T08:26:08.063Z,93.23
2017-12-31T08:28:35.873Z,93.62
2017-12-31T08:31:03.658Z,93.66
2017-12-31T08:33:31.461Z,93.44
2017-12-31T08:35:59.164Z,93.12
2017-12-31T08:38:26.998Z,92.62
2017-12-31T08:40:54.898Z,92.75
2017-12-31T08:43:22.826Z,92.66
2017-12-31T08:45:51.602Z,92.71
2017-12-31T08:48:19.437Z,92.75
2017-12-31T08:50:47.175Z,92.17
2017-12-31T08:53:14.958Z,92.03
2017-12-31T08:55:42.883Z,92.70
2017-12-31T08:58:11.287Z,92.80
2017-12-31T09:00:39.017Z,92.22
2017-12-31T09:03:07.029Z,91.57
2017-12-31T09:05:34.853Z,91.19
2017-12-31T09:08:02.577Z,91.22
2017-12-31T09:10:30.438Z,90.07
2017-12-31T09:12:58.392Z,90.02
2017-12-31T09:15:26.110Z,90.13
2017-12-31T09:17:53.894Z,90.27
2017-12-31T09:20:21.718Z,89.88
2017-12-31T09:22:49.635Z,88.40
2017-12-31T09:25:17.581Z,87.64
2017-12-31T09:27:45.363Z,85.64
2017-12-31T09:30:13.113Z,85.54
2017-12-31T09:32:41.089Z,84.02
2017-12-31T09:35:08.835Z,82.16
2017-12-31T09:37:36.663Z,81.37
2017-12-31T09:40:04.383Z,81.60
2017-12-31T09:42:32.301Z,83.54
2017-12-31T09:45:00.059Z,84.00
2017-12-31T09:47:27.792Z,82.14
2017-12-31T09:49:56.228Z,77.66
2017-12-31T09:52:24.832Z,76.21
2017-12-31T09:54:53.456Z,73.83
2017-12-31T09:57:21.510Z,73.32
2017-12-31T09:59:49.399Z,72.51
2017-12-31T10:02:17.379Z,70.95
2017-12-31T10:04:45.210Z,69.64
2017-12-31T10:07:13.021Z,68.71
2017-12-31T10:09:41.203Z,67.83
2017-12-31T10:12:09.113Z,69.36
2017-12-31T10:14:37.917Z,71.90
2017-12-31T10:17:05.683Z,72.83
2017-12-31T10:19:33.667Z,74.56
2017-12-31T10:22:01.642Z,74.00
2017-12-31T10:24:29.595Z,74.42
2017-12-31T10:26:57.712Z,74.14
2017-12-31T10:29:25.520Z,74.05
2017-12-31T10:31:53.827Z,69.61
2017-12-31T10:34:21.572Z,68.12
2017-12-31T10:36:49.462Z,67.49
2017-12-31T10:39:17.356Z,66.70
2017-12-31T10:41:45.676Z,66.62
2017-12-31T10:44:13.578Z,64.91
2017-12-31T10:46:41.431Z,67.96
2017-12-31T10:49:09.252Z,66.00
2017-12-31T10:51:37.022Z,68.91
2017-12-31T10:54:04.852Z,66.45
2017-12-31T10:56:32.628Z,66.99
2017-12-31T10:59:00.358Z,68.44
2017-12-31T11:01:28.091Z,67.17
2017-12-31T11:03:55.980Z,65.13
2017-12-31T11:06:23.740Z,65.30
2017-12-31T11:08:51.685Z,67.58
2017-12-31T11:11:19.390Z,66.04
2017-12-31T11:13:47.317Z,65.84
2017-12-31T11:16:15.175Z,63.99
2017-12-31T11:18:42.936Z,63.84
2017-12-31T11:21:10.694Z,63.02
2017-12-31T11:23:38.510Z,62.86
2017-12-31T11:26:06.220Z,62.84
2017-12-31T11:28:34.254Z,63.31
2017-12-31T11:31:02.850Z,62.67
2017-12-31T11:33:30.705Z,64.92
2017-12-31T11:35:58.483Z,67.30
2017-12-31T11:38:26.177Z,64.84
2017-12-31T11:40:53.920Z,65.00
2017-12-31T11:43:21.768Z,70.04
2017-12-31T11:45:49.546Z,67.42
2017-12-31T11:48:17.329Z,66.40
2017-12-31T11:50:45.171Z,66.16
2017-12-31T11:53:13.030Z,63.83
2017-12-31T11:55:40.810Z,64.52
2017-12-31T11:58:08.673Z,62.82
2017-12-31T12:00:36.458Z,63.33
2017-12-31T12:03:04.313Z,63.32
2017-12-31T12:05:32.016Z,60.54
2017-12-31T12:07:59.781Z,62.91
2017-12-31T12:10:28.302Z,60.76
2017-12-31T12:12:56.162Z,63.37
2017-12-31T12:15:24.718Z,61.56
2017-12-31T12:17:52.545Z,64.22
2017-12-31T12:20:20.387Z,63.39
2017-12-31T12:22:48.353Z,62.11
2017-12-31T12:25:16.394Z,61.16
2017-12-31T12:27:44.504Z,62.32
2017-12-31T12:30:13.482Z,62.62
2017-12-31T12:32:41.488Z,61.29
2017-12-31T12:35:09.329Z,60.34
2017-12-31T12:37:37.080Z,62.79
2017-12-31T12:40:04.901Z,61.25
2017-12-31T12:42:32.647Z,61.45
2017-12-31T12:45:00.474Z,62.03
2017-12-31T12:47:28.330Z,60.91
2017-12-31T12:49:56.235Z,62.38
2017-12-31T12:52:24.300Z,64.05
2017-12-31T12:54:52.063Z,63.76
2017-12-31T12:57:19.846Z,63.26
2017-12-31T12:59:47.624Z,62.40
2017-12-31T13:02:15.326Z,63.23
2017-12-31T13:04:43.120Z,62.30
2017-12-31T13:07:10.944Z,65.27
2017-12-31T13:09:38.734Z,63.99
2017-12-31T13:12:06.491Z,65.09
2017-12-31T13:14:34.188Z,66.61
2017-12-31T13:17:01.906Z,66.28
2017-12-31T13:19:29.649Z,65.98
2017-12-31T13:21:57.363Z,67.49
2017-12-31T13:24:25.120Z,68.58
2017-12-31T13:26:52.840Z,67.95
2017-12-31T13:29:20.545Z,69.50
2017-12-31T13:31:48.320Z,70.80
2017-12-31T13:34:16.006Z,70.14
2017-12-31T13:36:43.774Z,70.45
2017-12-31T13:39:11.513Z,69.95
2017-12-31T13:41:39.232Z,69.99
2017-12-31T13:44:07.036Z,70.81
2017-12-31T13:46:35.325Z,70.06
2017-12-31T13:49:04.222Z,69.75
2017-12-31T13:51:32.246Z,69.86
2017-12-31T13:54:00.001Z,70.80
2017-12-31T13:56:27.764Z,72.19
2017-12-31T13:58:55.745Z,71.61
2017-12-31T14:01:23.457Z,74.09
2017-12-31T14:03:51.225Z,73.90
2017-12-31T14:06:19.022Z,72.04
2017-12-31T14:08:46.770Z,71.71
2017-12-31T14:11:14.494Z,72.18
2017-12-31T14:13:42.215Z,74.43
2017-12-31T14:16:09.999Z,73.82
2017-12-31T14:18:37.708Z,73.95
2017-12-31T14:21:05.571Z,74.36
2017-12-31T14:23:33.319Z,76.77
2017-12-31T14:26:01.021Z,79.36
2017-12-31T14:28:28.814Z,78.56
2017-12-31T14:30:56.569Z,78.65
2017-12-31T14:33:24.351Z,78.22
2017-12-31T14:35:52.098Z,78.79
2017-12-31T14:38:19.788Z,82.33
2017-12-31T14:40:47.566Z,80.98
2017-12-31T14:43:15.356Z,79.95
2017-12-31T14:45:43.070Z,79.44
2017-12-31T14:48:10.874Z,80.42
2017-12-31T14:50:38.675Z,80.04
2017-12-31T14:53:06.457Z,80.17
2017-12-31T14:55:34.237Z,82.86
2017-12-31T14:58:02.190Z,81.32
2017-12-31T15:00:30.086Z,81.28
2017-12-31T15:02:57.948Z,80.87
2017-12-31T15:05:25.703Z,80.63
2017-12-31T15:07:53.474Z,81.35
2017-12-31T15:10:21.180Z,82.23
2017-12-31T15:12:48.976Z,82.19
2017-12-31T15:15:16.936Z,82.41
2017-12-31T15:17:44.768Z,81.96
2017-12-31T15:20:12.600Z,81.94
2017-12-31T15:22:40.310Z,82.91
2017-12-31T15:25:08.077Z,82.90
2017-12-31T15:27:35.816Z,83.21
2017-12-31T15:30:04.017Z,83.59
2017-12-31T15:32:31.771Z,82.57
2017-12-31T15:35:00.025Z,83.08
2017-12-31T15:37:27.802Z,82.89
2017-12-31T15:39:55.627Z,84.79
2017-12-31T15:42:24.199Z,85.09
2017-12-31T15:44:51.952Z,84.36
2017-12-31T15:47:19.747Z,83.99
2017-12-31T15:49:47.559Z,83.87
2017-12-31T15:52:15.315Z,84.10
2017-12-31T15:54:43.135Z,83.90
2017-12-31T15:57:10.928Z,83.75
2017-12-31T15:59:39.030Z,84.07
2017-12-31T16:02:07.022Z,84.11
2017-12-31T16:04:34.783Z,84.07
2017-12-31T16:07:02.874Z,84.65
2017-12-31T16:09:30.748Z,83.11
2017-12-31T16:11:58.546Z,83.48
2017-12-31T16:14:26.348Z,83.71
2017-12-31T16:16:54.154Z,83.67
2017-12-31T16:19:22.412Z,84.71
2017-12-31T16:21:50.252Z,84.77
2017-12-31T16:24:18.071Z,85.23
2017-12-31T16:26:45.880Z,84.63
2017-12-31T16:29:13.613Z,86.73
2017-12-31T16:31:41.337Z,86.36
2017-12-31T16:34:09.169Z,86.29
2017-12-31T16:36:37.092Z,85.85
2017-12-31T16:39:05.009Z,85.09
2017-12-31T16:41:32.824Z,85.28
2017-12-31T16:44:00.738Z,86.81
2017-12-31T16:46:28.466Z,85.48
2017-12-31T16:48:56.322Z,85.98
2017-12-31T16:51:24.103Z,86.25
2017-12-31T16:53:51.877Z,86.12
2017-12-31T16:56:19.577Z,86.09
2017-12-31T16:58:47.348Z,86.54
2017-12-31T17:01:15.071Z,86.75
2017-12-31T17:03:42.825Z,87.01
2017-12-31T17:06:10.653Z,86.86
2017-12-31T17:08:39.474Z,87.19
2017-12-31T17:11:07.293Z,86.97
2017-12-31T17:13:34.988Z,87.23
2017-12-31T17:16:02.780Z,87.83
2017-12-31T17:18:30.515Z,87.92
2017-12-31T17:20:58.220Z,88.00
2017-12-31T17:23:26.002Z,87.13
2017-12-31T17:25:53.821Z,87.51
2017-12-31T17:28:22.630Z,87.40
2017-12-31T17:30:50.434Z,87.60
2017-12-31T17:33:18.205Z,88.15
2017-12-31T17:35:45.927Z,88.59
2017-12-31T17:38:13.772Z,87.92
2017-12-31T17:40:41.519Z,88.15
2017-12-31T17:43:09.246Z,89.05
2017-12-31T17:45:37.131Z,90.25
2017-12-31T17:48:04.897Z,89.22
2017-12-31T17:50:32.725Z,89.01
2017-12-31T17:53:00.422Z,88.63
2017-12-31T17:55:28.126Z,89.36
2017-12-31T17:57:55.915Z,90.03
2017-12-31T18:00:23.733Z,91.04
2017-12-31T18:02:51.451Z,91.68
2017-12-31T18:05:19.237Z,91.79
2017-12-31T18:07:46.929Z,90.78
2017-12-31T18:10:15.653Z,90.84
2017-12-31T18:12:43.431Z,90.34
2017-12-31T18:15:11.172Z,89.70
2017-12-31T18:17:38.860Z,89.69
2017-12-31T18:20:07.532Z,89.34
2017-12-31T18:22:35.290Z,89.69
2017-12-31T18:25:02.991Z,89.90
2017-12-31T18:27:30.910Z,90.35
2017-12-31T18:29:59.152Z,91.24
2017-12-31T18:32:26.898Z,90.02
2017-12-31T18:34:54.679Z,89.58
2017-12-31T18:37:22.584Z,90.42
2017-12-31T18:39:50.338Z,91.01
2017-12-31T18:42:18.151Z,90.89
2017-12-31T18:44:46.101Z,90.43
2017-12-31T18:47:13.957Z,90.66
2017-12-31T18:49:51.007Z,90.77
2017-12-31T18:52:19.619Z,92.75
2017-12-31T18:54:48.905Z,93.44
2017-12-31T18:57:17.327Z,92.82
2017-12-31T18:59:47.215Z,91.04
2017-12-31T19:02:21.391Z,90.80
2017-12-31T19:04:50.926Z,90.50
2017-12-31T19:07:20.189Z,90.60
2017-12-31T19:09:49.394Z,91.18
2017-12-31T19:12:18.604Z,91.98
2017-12-31T19:14:47.041Z,92.77
2017-12-31T19:17:15.376Z,92.65
2017-12-31T19:19:43.212Z,92.71
2017-12-31T19:22:11.850Z,92.79
2017-12-31T19:24:40.206Z,92.71
2017-12-31T19:27:07.981Z,92.22
2017-12-31T19:29:35.829Z,91.87
2017-12-31T19:32:03.566Z,92.10
2017-12-31T19:34:32.258Z,92.55
2017-12-31T19:37:00.698Z,92.55
2017-12-31T19:39:28.653Z,92.93
2017-12-31T19:41:56.966Z,93.24
2017-12-31T19:44:25.750Z,92.95
2017-12-31T19:46:53.764Z,92.56
2017-12-31T19:49:21.989Z,92.19
2017-12-31T19:51:49.766Z,92.54
2017-12-31T19:54:17.961Z,92.73
2017-12-31T19:56:45.697Z,92.10
2017-12-31T19:59:13.378Z,92.80
2017-12-31T20:01:41.217Z,93.45
2017-12-31T20:04:08.966Z,93.71
2017-12-31T20:06:36.740Z,93.44
2017-12-31T20:09:04.623Z,92.51
2017-12-31T20:11:32.382Z,92.54
2017-12-31T20:14:00.145Z,92.50
2017-12-31T20:16:27.898Z,93.59
2017-12-31T20:18:56.076Z,94.31
2017-12-31T20:21:23.796Z,94.61
2017-12-31T20:23:51.604Z,93.95
2017-12-31T20:26:19.372Z,93.66
2017-12-31T20:28:47.063Z,93.00
2017-12-31T20:31:14.820Z,92.60
2017-12-31T20:33:42.551Z,92.51
2017-12-31T20:36:10.339Z,92.46
2017-12-31T20:38:38.083Z,92.63
2017-12-31T20:41:05.846Z,92.99
2017-12-31T20:43:33.597Z,93.06
2017-12-31T20:46:01.430Z,92.94
2017-12-31T20:48:29.157Z,92.94
2017-12-31T20:50:56.947Z,93.00
2017-12-31T20:53:24.704Z,93.02
2017-12-31T20:55:52.469Z,92.92
2017-12-31T20:58:20.300Z,92.71
2017-12-31T21:00:48.129Z,92.92
2017-12-31T21:03:15.981Z,93.10
2017-12-31T21:05:46.991Z,92.68
2017-12-31T21:08:15.464Z,92.28
2017-12-31T21:10:43.342Z,92.51
2017-12-31T21:13:11.037Z,92.66
2017-12-31T21:15:42.450Z,92.69
2017-12-31T21:18:10.219Z,92.36
2017-12-31T21:20:37.938Z,92.50
2017-12-31T21:23:05.637Z,91.87
2017-12-31T21:25:33.373Z,91.51
2017-12-31T21:28:01.191Z,93.33
2017-12-31T21:30:29.005Z,93.40
2017-12-31T21:32:56.887Z,93.30
2017-12-31T21:35:24.567Z,94.06
2017-12-31T21:37:52.350Z,94.01
2017-12-31T21:40:20.044Z,93.29
2017-12-31T21:42:47.762Z,92.98
2017-12-31T21:45:15.535Z,93.30
2017-12-31T21:47:43.335Z,93.67
2017-12-31T21:50:11.068Z,93.36
2017-12-31T21:52:39.009Z,92.58
2017-12-31T21:55:06.753Z,92.25
2017-12-31T21:57:34.527Z,92.24
2017-12-31T22:00:02.261Z,92.33
2017-12-31T22:02:29.986Z,92.46
2017-12-31T22:04:57.757Z,92.20
2017-12-31T22:07:25.530Z,92.04
2017-12-31T22:09:53.211Z,91.85
2017-12-31T22:12:20.955Z,91.98
2017-12-31T22:14:48.619Z,92.21
2017-12-31T22:17:16.362Z,92.39
2017-12-31T22:19:44.113Z,92.60
2017-12-31T22:22:11.886Z,93.30
2017-12-31T22:24:39.605Z,93.24
2017-12-31T22:27:07.358Z,93.15
2017-12-31T22:29:35.144Z,93.17
2017-12-31T22:32:02.940Z,93.40
2017-12-31T22:34:30.678Z,93.72
2017-12-31T22:36:58.444Z,93.55
2017-12-31T22:39:26.233Z,93.13
2017-12-31T22:42:00.882Z,93.23
2017-12-31T22:44:28.655Z,92.88
2017-12-31T22:46:56.392Z,92.49
2017-12-31T22:49:24.156Z,92.22
2017-12-31T22:51:51.837Z,92.28
2017-12-31T22:54:19.575Z,91.79
2017-12-31T22:56:47.246Z,91.34
2017-12-31T22:59:14.980Z,91.20
2017-12-31T23:01:42.657Z,92.02
2017-12-31T23:04:10.393Z,92.76
2017-12-31T23:06:38.132Z,92.23
2017-12-31T23:09:05.870Z,92.64
2017-12-31T23:11:33.805Z,92.53
2017-12-31T23:14:01.650Z,92.36
2017-12-31T23:16:29.346Z,92.32
2017-12-31T23:18:57.062Z,92.40
2017-12-31T23:21:24.852Z,91.99
2017-12-31T23:23:54.017Z,92.08
2017-12-31T23:26:21.978Z,92.29
2017-12-31T23:28:50.482Z,92.22
2017-12-31T23:31:18.938Z,92.09
2017-12-31T23:33:46.995Z,92.08
2017-12-31T23:36:15.123Z,92.06
2017-12-31T23:38:43.238Z,92.24
2017-12-31T23:41:11.168Z,92.58
2017-12-31T23:43:38.980Z,92.21
2017-12-31T23:46:06.718Z,92.26
2017-12-31T23:48:34.461Z,92.42
2017-12-31T23:51:02.215Z,92.28
2017-12-31T23:53:29.960Z,92.20
2017-12-31T23:55:57.727Z,92.10
2017-12-31T23:58:25.501Z,92.03
